Time;durP1;ratioP1;P1;durP2;ratioP2;P2;SDS_P1;SDS_P2;PMS_P1;PMS_P2;Temp;Humidity;BMP_temperature;BMP_pressure;BME280_temperature;BME280_humidity;BME280_pressure;Samples;Min_cycle;Max_cycle;Signal;HPM_P1;HPM_P2
2022/11/22 00:00:00;;;;;;;5.30;3.80;;;;;;;6.41;61.98;97665.78;10449978;28;20228;-34
2022/11/22 00:05:02;;;;;;;4.83;3.87;;;;;;;7.50;59.61;97639.25;10444034;28;20612;-34
2022/11/22 00:10:06;;;;;;;4.07;3.00;;;;;;;7.81;58.97;97645.56;10443436;28;20318;-34
2022/11/22 00:15:09;;;;;;;5.10;3.10;;;;;;;6.81;60.71;97687.75;10447761;28;20224;-34
2022/11/22 00:20:10;;;;;;;3.47;2.83;;;;;;;7.61;58.61;97653.72;10448800;28;20240;-34
2022/11/22 00:25:13;;;;;;;4.57;3.60;;;;;;;7.49;59.17;97677.53;10449769;28;20251;-34
2022/11/22 00:30:15;;;;;;;5.97;3.60;;;;;;;7.28;60.56;97698.16;10446366;28;20711;-33
2022/11/22 00:35:17;;;;;;;5.10;3.43;;;;;;;7.66;59.29;97694.63;10446043;28;20242;-34
2022/11/22 00:40:18;;;;;;;7.83;3.73;;;;;;;6.97;60.65;97713.03;10445916;28;20243;-34
2022/11/22 00:45:20;;;;;;;6.27;4.07;;;;;;;7.87;59.34;97690.00;10442137;28;20228;-34
2022/11/22 00:50:22;;;;;;;6.17;3.50;;;;;;;7.67;59.47;97708.75;10441392;28;20697;-34
2022/11/22 00:55:23;;;;;;;6.07;3.90;;;;;;;6.99;60.72;97734.13;10443521;28;20231;-34
2022/11/22 01:00:25;;;;;;;4.97;3.40;;;;;;;7.66;58.89;97707.94;10444493;28;20235;-34
2022/11/22 01:05:27;;;;;;;5.53;3.10;;;;;;;7.62;59.18;97724.56;10429936;28;20882;-34
2022/11/22 01:10:29;;;;;;;4.23;3.40;;;;;;;7.89;58.73;97735.84;10444306;28;20244;-34
2022/11/22 01:15:31;;;;;;;3.83;3.53;;;;;;;7.87;58.60;97748.56;10446824;28;20228;-34
2022/11/22 01:20:33;;;;;;;5.53;3.60;;;;;;;7.46;59.49;97752.47;10445238;28;20239;-34
2022/11/22 01:25:35;;;;;;;5.93;3.63;;;;;;;6.91;61.92;97806.13;10445359;28;20234;-34
2022/11/22 01:30:37;;;;;;;7.30;4.17;;;;;;;8.75;57.70;97787.53;10444170;28;20232;-34
2022/11/22 01:35:38;;;;;;;5.23;3.30;;;;;;;7.05;60.63;97831.66;10445840;28;20228;-34
2022/11/22 01:40:40;;;;;;;3.70;3.27;;;;;;;7.94;59.43;97778.63;10444926;28;20581;-34
2022/11/22 01:45:46;;;;;;;3.47;3.10;;;;;;;8.42;57.90;97804.69;10437996;28;20251;-34
2022/11/22 01:50:52;;;;;;;7.83;4.00;;;;;;;7.87;59.03;97804.50;10449369;28;20224;-34
2022/11/22 01:55:58;;;;;;;7.90;3.83;;;;;;;6.83;60.59;97832.94;10441028;28;20323;-34
2022/11/22 02:01:00;;;;;;;6.07;3.40;;;;;;;7.77;59.43;97796.13;10436121;28;20246;-34
2022/11/22 02:06:04;;;;;;;5.37;3.30;;;;;;;6.41;62.41;97844.63;10440192;28;20239;-34
2022/11/22 02:11:08;;;;;;;4.23;3.10;;;;;;;7.80;58.76;97831.13;10442701;28;20257;-34
2022/11/22 02:16:11;;;;;;;5.30;3.53;;;;;;;7.70;58.83;97852.09;10443922;28;20224;-34
2022/11/22 02:21:13;;;;;;;4.87;3.33;;;;;;;7.83;59.20;97844.03;10432354;28;20243;-34
2022/11/22 02:26:15;;;;;;;4.07;2.97;;;;;;;6.25;62.89;97876.88;10438745;28;20235;-34
2022/11/22 02:31:38;;;;;;;5.60;3.03;;;;;;;6.76;60.90;97868.31;10441690;28;20242;-45
2022/11/22 02:36:48;;;;;;;4.50;3.00;;;;;;;7.39;59.29;97858.16;10438395;28;20297;-45
2022/11/22 02:41:50;;;;;;;7.80;3.40;;;;;;;7.38;60.59;97860.00;10441657;28;20224;-42
2022/11/22 02:46:54;;;;;;;3.83;3.13;;;;;;;7.98;58.79;97850.94;10438993;28;20240;-43
2022/11/22 02:51:56;;;;;;;5.63;4.00;;;;;;;7.76;58.79;97869.84;10439202;28;20895;-46
2022/11/22 02:56:57;;;;;;;5.37;2.90;;;;;;;7.48;59.13;97891.50;10444588;28;20251;-43
2022/11/22 03:01:59;;;;;;;9.23;3.20;;;;;;;7.94;58.66;97884.34;10442072;28;20239;-44
2022/11/22 03:07:04;;;;;;;7.23;3.50;;;;;;;7.82;58.60;97902.81;10439697;28;20239;-44
2022/11/22 03:12:06;;;;;;;9.20;3.53;;;;;;;8.03;58.36;97907.88;10435035;28;20374;-43
2022/11/22 03:17:07;;;;;;;6.77;3.73;;;;;;;6.72;59.45;97927.41;10442248;28;20238;-44
2022/11/22 03:22:09;;;;;;;8.47;3.13;;;;;;;7.07;57.81;97930.69;10440078;28;20228;-44
2022/11/22 03:27:12;;;;;;;6.77;3.27;;;;;;;7.99;56.86;97929.81;10427464;28;20247;-41
2022/11/22 03:32:14;;;;;;;8.27;3.53;;;;;;;7.41;57.32;97952.72;10441429;28;20228;-42
2022/11/22 03:37:15;;;;;;;10.63;3.23;;;;;;;6.90;58.31;97951.56;10440781;28;20246;-44
2022/11/22 03:42:17;;;;;;;7.37;3.50;;;;;;;7.83;55.80;97953.22;10441486;28;20239;-44
2022/11/22 03:47:22;;;;;;;6.47;3.60;;;;;;;7.91;56.59;97957.50;10444074;28;20697;-45
2022/11/22 03:52:24;;;;;;;11.80;3.87;;;;;;;7.76;56.43;97975.56;10439277;28;20644;-43
2022/11/22 03:57:26;;;;;;;7.80;3.10;;;;;;;7.95;56.08;97972.03;10440369;28;20248;-43
2022/11/22 04:02:27;;;;;;;8.73;3.50;;;;;;;7.74;55.87;97992.53;10435187;28;20232;-44
2022/11/22 04:07:29;;;;;;;11.73;4.00;;;;;;;7.33;56.91;98014.97;10436117;28;20698;-44
2022/11/22 04:12:31;;;;;;;8.67;3.57;;;;;;;8.14;54.93;97996.94;10445352;28;20228;-44
2022/11/22 04:17:40;;;;;;;8.13;2.70;;;;;;;7.84;55.03;97993.97;10447314;28;20244;-44
2022/11/22 04:22:42;;;;;;;9.20;3.40;;;;;;;7.96;54.76;98020.78;10445310;28;20274;-44
2022/11/22 04:27:44;;;;;;;11.33;3.20;;;;;;;8.58;53.82;98029.13;10446712;28;20239;-43
2022/11/22 04:32:46;;;;;;;12.00;3.30;;;;;;;7.53;55.36;98027.44;10447217;28;20692;-44
2022/11/22 04:37:51;;;;;;;13.67;4.17;;;;;;;7.54;54.86;98029.03;10439404;28;20603;-44
2022/11/22 04:48:23;;;;;;;15.23;3.83;;;;;;;7.75;55.46;98033.31;10381888;28;20239;-43
2022/11/22 04:53:26;;;;;;;8.70;3.07;;;;;;;8.08;54.25;98025.25;10426333;28;20256;-44
2022/11/22 04:58:28;;;;;;;10.07;3.70;;;;;;;8.11;54.55;98024.81;10396757;28;20235;-44
2022/11/22 05:03:29;;;;;;;7.90;3.00;;;;;;;8.38;53.35;98027.38;10398398;28;20238;-43
2022/11/22 05:08:31;;;;;;;13.07;3.90;;;;;;;7.49;55.06;98034.19;10394788;28;20243;-44
2022/11/22 05:13:35;;;;;;;7.50;3.70;;;;;;;7.56;55.24;98050.97;10418182;28;20251;-43
2022/11/22 05:18:38;;;;;;;11.40;3.60;;;;;;;6.80;57.17;98066.28;10393475;28;20232;-44
2022/11/22 05:23:55;;;;;;;6.77;3.20;;;;;;;7.68;55.25;98054.63;10409087;28;20226;-45
2022/11/22 05:28:58;;;;;;;10.27;3.50;;;;;;;6.98;55.69;98075.53;10380461;28;20313;-43
2022/11/22 05:34:00;;;;;;;8.17;3.43;;;;;;;7.35;55.46;98071.44;10397780;28;20416;-44
2022/11/22 05:39:02;;;;;;;6.77;3.60;;;;;;;7.78;54.72;98080.84;10387976;28;20238;-43
2022/11/22 05:44:04;;;;;;;10.33;3.50;;;;;;;7.64;54.96;98092.53;10391595;28;20241;-45
2022/11/22 05:49:06;;;;;;;6.47;2.93;;;;;;;8.16;53.73;98082.00;10391905;28;20676;-44
2022/11/22 05:54:08;;;;;;;16.87;3.77;;;;;;;7.59;54.52;98087.00;10397245;28;20239;-45
2022/11/22 05:59:10;;;;;;;14.83;4.10;;;;;;;7.72;53.77;98085.13;10411485;28;20228;-44
2022/11/22 06:04:11;;;;;;;11.37;3.57;;;;;;;7.56;53.17;98082.91;10389046;28;20240;-44
2022/11/22 06:09:13;;;;;;;10.47;3.93;;;;;;;6.79;54.38;98103.72;10415086;28;20263;-43
2022/11/22 06:14:15;;;;;;;10.87;3.40;;;;;;;7.72;53.11;98118.94;10393002;28;20219;-44
2022/11/22 06:19:16;;;;;;;9.33;3.80;;;;;;;7.57;53.21;98118.34;10384713;28;20394;-44
2022/11/22 06:24:18;;;;;;;8.53;3.43;;;;;;;7.99;52.56;98125.06;10437997;28;20239;-44
2022/11/22 06:29:20;;;;;;;12.50;3.90;;;;;;;7.67;52.18;98116.06;10444343;28;20876;-44
2022/11/22 06:34:22;;;;;;;6.43;3.43;;;;;;;8.53;51.99;98147.06;10410077;28;20216;-44
2022/11/22 06:39:24;;;;;;;7.93;3.00;;;;;;;8.78;51.35;98162.34;10440039;28;20407;-44
2022/11/22 06:44:25;;;;;;;11.27;4.13;;;;;;;8.93;51.28;98183.44;10391869;28;20236;-44
2022/11/22 06:49:27;;;;;;;11.43;3.83;;;;;;;7.62;53.72;98193.06;10377368;28;20240;-44
2022/11/22 06:54:30;;;;;;;6.50;2.80;;;;;;;9.12;51.67;98192.38;10382175;28;20229;-44
2022/11/22 06:59:31;;;;;;;10.10;3.87;;;;;;;7.84;53.05;98170.56;10411579;28;20236;-45
2022/11/22 07:04:33;;;;;;;9.27;3.90;;;;;;;8.90;52.55;98189.22;10408331;28;20252;-43
2022/11/22 07:09:37;;;;;;;10.23;4.60;;;;;;;8.13;53.12;98188.97;10414034;28;20220;-45
2022/11/22 07:14:38;;;;;;;9.43;4.67;;;;;;;6.96;55.29;98173.31;10420233;28;20196;-43
2022/11/22 07:19:40;;;;;;;7.73;3.60;;;;;;;6.60;57.02;98198.31;10410220;28;20223;-43
2022/11/22 07:24:42;;;;;;;8.07;4.47;;;;;;;7.63;54.65;98197.34;10416224;28;20228;-44
2022/11/22 07:29:43;;;;;;;8.47;4.83;;;;;;;8.83;52.70;98198.00;10412522;28;20258;-43
2022/11/22 07:34:45;;;;;;;12.30;5.47;;;;;;;7.97;53.85;98211.56;10409715;28;20977;-43
2022/11/22 07:39:47;;;;;;;9.43;4.90;;;;;;;8.71;52.99;98214.88;10420156;28;20732;-44
2022/11/22 07:44:49;;;;;;;7.97;4.10;;;;;;;8.34;54.61;98218.06;10411131;28;20235;-44
2022/11/22 07:49:50;;;;;;;11.07;6.13;;;;;;;8.81;53.04;98234.75;10422053;28;20689;-45
2022/11/22 07:54:52;;;;;;;8.80;4.63;;;;;;;8.69;52.88;98255.13;10423308;28;20211;-44
2022/11/22 07:59:54;;;;;;;9.23;4.20;;;;;;;6.25;57.41;98223.03;10424914;28;20306;-43
2022/11/22 08:04:55;;;;;;;9.63;4.03;;;;;;;6.47;57.99;98252.19;10420935;28;20250;-45
2022/11/22 08:09:57;;;;;;;6.60;4.50;;;;;;;7.15;56.62;98240.88;10414836;28;20231;-43
2022/11/22 08:14:59;;;;;;;7.43;4.00;;;;;;;7.72;55.11;98215.59;10426849;28;20210;-41
2022/11/22 08:20:01;;;;;;;9.63;3.97;;;;;;;6.86;57.33;98239.34;10415215;28;20867;-45
2022/11/22 08:25:03;;;;;;;10.53;4.17;;;;;;;6.72;58.41;98222.47;10423860;28;20819;-43
2022/11/22 08:30:05;;;;;;;5.67;4.17;;;;;;;7.16;57.21;98215.94;10420889;28;20987;-45
2022/11/22 08:35:07;;;;;;;9.80;4.00;;;;;;;7.43;56.70;98189.38;10414664;28;20200;-44
2022/11/22 08:40:10;;;;;;;8.63;3.77;;;;;;;7.31;56.42;98197.94;10416804;28;20276;-43
2022/11/22 08:45:11;;;;;;;10.10;3.77;;;;;;;7.16;57.21;98174.16;10422712;28;21095;-44
2022/11/22 08:50:14;;;;;;;7.87;3.30;;;;;;;6.91;57.52;98195.16;10414349;28;20228;-42
2022/11/22 08:55:15;;;;;;;9.53;3.27;;;;;;;7.01;56.51;98215.25;10413451;28;20242;-43
2022/11/22 09:00:17;;;;;;;8.47;3.50;;;;;;;7.82;54.93;98193.09;10417878;28;20239;-45
2022/11/22 09:05:19;;;;;;;11.57;3.60;;;;;;;7.74;54.69;98189.59;10439174;28;20251;-43
2022/11/22 09:10:21;;;;;;;8.53;3.70;;;;;;;7.67;54.72;98191.44;10436150;28;20614;-45
2022/11/22 09:15:22;;;;;;;8.10;3.73;;;;;;;8.03;54.88;98192.91;10445704;28;20722;-46
2022/11/22 09:20:24;;;;;;;6.83;3.30;;;;;;;7.50;54.72;98206.97;10444116;28;20236;-44
2022/11/22 09:25:26;;;;;;;9.00;4.53;;;;;;;8.18;54.39;98219.31;10441138;28;20239;-44
2022/11/22 09:30:29;;;;;;;8.00;4.43;;;;;;;7.69;54.85;98212.53;10445943;28;20246;-43
2022/11/22 09:35:30;;;;;;;8.10;3.37;;;;;;;7.88;53.57;98226.91;10437555;28;20224;-44
2022/11/22 09:40:33;;;;;;;6.93;3.10;;;;;;;8.04;53.11;98217.69;10444265;28;20247;-44
2022/11/22 09:45:41;;;;;;;9.87;3.73;;;;;;;8.08;53.04;98214.41;10442533;28;20271;-44
2022/11/22 09:51:08;;;;;;;12.17;3.17;;;;;;;8.34;52.78;98212.72;10440941;28;20243;-44
2022/11/22 09:56:14;;;;;;;6.90;2.50;;;;;;;7.26;54.24;98231.50;10438108;28;20606;-44
2022/11/22 10:01:34;;;;;;;5.53;2.93;;;;;;;8.15;54.01;98192.25;10434450;28;20236;-44
2022/11/22 10:06:40;;;;;;;6.90;3.13;;;;;;;8.25;51.96;98195.31;10443426;28;20239;-43
2022/11/22 10:11:48;;;;;;;4.23;2.87;;;;;;;6.83;52.90;98242.38;10444548;28;20278;-44
2022/11/22 10:17:00;;;;;;;9.47;3.60;;;;;;;8.21;51.15;98218.88;10440720;28;20234;-44
2022/11/22 10:22:01;;;;;;;8.03;4.00;;;;;;;6.63;55.01;98248.38;10438027;28;20602;-44
2022/11/22 10:27:08;;;;;;;5.57;3.20;;;;;;;6.49;55.51;98239.53;10443389;28;20232;-44
2022/11/22 10:32:40;;;;;;;7.10;3.37;;;;;;;7.05;54.40;98238.59;10436423;28;20228;-44
2022/11/22 10:38:20;;;;;;;2.83;2.00;;;;;;;7.69;54.42;98199.22;10437568;28;20705;-43
2022/11/22 10:43:31;;;;;;;9.73;3.27;;;;;;;7.66;54.03;98220.91;10382280;28;20721;-44
2022/11/22 10:48:51;;;;;;;7.60;3.60;;;;;;;6.85;55.26;98233.19;10432991;28;20239;-44
2022/11/22 10:53:59;;;;;;;6.03;2.87;;;;;;;6.68;56.38;98242.50;10440551;28;20727;-43
2022/11/22 10:59:13;;;;;;;9.53;3.20;;;;;;;7.39;54.97;98228.03;10440974;28;20223;-43
2022/11/22 11:06:52;;;;;;;6.80;4.10;;;;;;;5.06;61.22;98140.53;10470735;27;2024879;-68
2022/11/22 11:12:32;;;;;;;6.37;3.33;;;;;;;5.11;60.44;98138.16;10334637;28;20221;-68
2022/11/22 11:17:37;;;;;;;8.33;3.13;;;;;;;5.65;59.89;98134.16;10449925;28;20802;-68
2022/11/22 11:22:38;;;;;;;7.07;3.67;;;;;;;5.70;58.53;98118.47;10447225;28;20239;-65
2022/11/22 11:28:05;;;;;;;7.93;3.13;;;;;;;5.52;58.61;98125.06;10492869;28;20232;-68
2022/11/22 11:33:31;;;;;;;6.87;2.83;;;;;;;6.11;58.11;98104.44;10476773;28;20250;-67
2022/11/22 11:38:39;;;;;;;7.80;3.10;;;;;;;5.95;57.24;98105.56;10458014;28;20750;-68
2022/11/22 11:43:42;;;;;;;5.30;2.63;;;;;;;5.55;57.50;98109.75;10451093;28;20232;-68
2022/11/22 11:48:45;;;;;;;6.13;2.60;;;;;;;6.06;55.75;98106.88;10475082;28;20223;-68
2022/11/22 11:54:00;;;;;;;4.03;2.70;;;;;;;6.01;56.10;98110.09;10498876;28;20600;-68
2022/11/22 11:59:17;;;;;;;5.77;2.93;;;;;;;6.31;55.18;98107.19;10507319;28;20222;-68
2022/11/22 12:04:22;;;;;;;9.13;3.40;;;;;;;6.57;55.12;98095.84;10498622;28;20784;-68
2022/11/22 12:09:43;;;;;;;3.97;2.73;;;;;;;6.39;55.39;98114.19;10498290;28;20238;-68
2022/11/22 12:14:50;;;;;;;4.70;2.70;;;;;;;6.47;54.51;98103.38;10480984;28;20281;-68
2022/11/22 12:20:26;;;;;;;5.87;2.23;;;;;;;6.41;54.64;98099.69;10474956;28;20277;-68
2022/11/22 12:25:37;;;;;;;4.23;2.80;;;;;;;7.11;53.81;98103.97;10469697;28;20253;-68
2022/11/22 12:30:42;;;;;;;3.43;2.53;;;;;;;7.09;53.69;98109.50;10450855;28;20246;-68
2022/11/22 12:35:45;;;;;;;5.80;4.00;;;;;;;6.99;53.45;98083.31;10473457;28;20227;-68
2022/11/22 12:40:51;;;;;;;5.07;2.50;;;;;;;7.68;52.37;98107.06;10474020;28;20652;-68
2022/11/22 12:45:58;;;;;;;3.60;2.33;;;;;;;6.44;53.97;98122.38;10472537;28;20854;-68
2022/11/22 12:51:11;;;;;;;6.17;2.20;;;;;;;7.15;53.02;98103.34;10471678;28;20736;-68
2022/11/22 12:56:26;;;;;;;2.97;2.33;;;;;;;6.69;54.35;98121.84;10468191;28;20246;-68
2022/11/22 13:01:37;;;;;;;4.73;2.70;;;;;;;6.65;53.78;98109.97;10452773;28;20305;-68
2022/11/22 13:06:48;;;;;;;2.60;2.00;;;;;;;7.26;53.32;98099.28;10469879;28;20661;-68
2022/11/22 13:11:58;;;;;;;2.53;2.00;;;;;;;7.09;53.20;98111.31;10467781;28;20227;-68
2022/11/22 13:17:06;;;;;;;2.03;1.83;;;;;;;6.06;54.73;98146.72;10465197;28;20240;-68
2022/11/22 13:22:35;;;;;;;6.13;2.70;;;;;;;7.41;53.46;98119.53;10471816;28;20244;-68
2022/11/22 13:27:43;;;;;;;2.50;2.40;;;;;;;6.15;55.74;98140.22;10468697;28;20231;-68
2022/11/22 13:32:49;;;;;;;2.73;1.90;;;;;;;7.78;53.14;98127.94;10468913;28;20239;-67
2022/11/22 13:38:01;;;;;;;2.50;2.20;;;;;;;8.05;53.07;98150.03;10456275;28;20227;-67
2022/11/22 13:43:14;;;;;;;4.03;2.27;;;;;;;7.89;53.45;98128.16;10470708;28;20246;-68
2022/11/22 13:48:38;;;;;;;2.00;1.90;;;;;;;5.65;56.48;98145.59;10470377;28;20254;-68
2022/11/22 13:53:45;;;;;;;2.87;2.07;;;;;;;6.77;54.41;98142.97;10468083;28;20620;-68
2022/11/22 13:58:47;;;;;;;2.97;2.30;;;;;;;8.16;53.05;98153.94;10460640;28;20639;-68
2022/11/22 14:03:52;;;;;;;1.93;1.80;;;;;;;7.57;53.41;98131.66;10463496;28;20768;-68
2022/11/22 14:09:30;;;;;;;2.50;2.30;;;;;;;7.24;53.61;98154.56;10466153;28;20331;-68
2022/11/22 14:15:11;;;;;;;2.57;1.90;;;;;;;7.04;53.92;98145.69;10446895;28;20350;-68
2022/11/22 14:20:29;;;;;;;3.13;1.93;;;;;;;5.77;55.71;98159.16;10465540;28;20227;-68
2022/11/22 14:25:40;;;;;;;2.50;1.90;;;;;;;6.84;55.72;98138.50;10464281;28;20234;-68
2022/11/22 14:30:52;;;;;;;3.10;2.57;;;;;;;5.34;60.21;98167.13;10472015;28;20223;-68
2022/11/22 14:36:06;;;;;;;4.50;2.37;;;;;;;5.70;60.08;98155.63;10465764;28;20781;-67
2022/11/22 14:41:43;;;;;;;2.30;2.10;;;;;;;5.48;59.00;98165.41;10459549;28;20711;-74
2022/11/22 14:47:01;;;;;;;2.20;2.10;;;;;;;6.11;60.66;98122.19;10373270;28;20259;-74
2022/11/22 14:52:11;;;;;;;4.67;2.23;;;;;;;5.86;61.45;98135.97;10465839;28;20227;-69
2022/11/22 14:57:20;;;;;;;4.13;3.00;;;;;;;6.22;60.69;98122.47;10473047;28;20245;-70
2022/11/22 15:03:08;;;;;;;2.77;2.40;;;;;;;5.75;60.75;98145.25;10466718;28;20235;-68
2022/11/22 15:08:22;;;;;;;6.87;2.80;;;;;;;7.49;57.81;98116.69;10420891;28;20258;-69
2022/11/22 15:14:11;;;;;;;4.00;3.60;;;;;;;6.04;60.85;98141.59;10438775;28;20689;-70
2022/11/22 15:19:36;;;;;;;3.10;2.27;;;;;;;5.95;61.81;98124.16;10477609;28;20265;-70
2022/11/22 15:24:58;;;;;;;2.73;2.17;;;;;;;5.36;62.33;98159.81;10469925;28;20779;-71
2022/11/22 15:30:22;;;;;;;3.10;2.40;;;;;;;6.11;62.32;98133.66;10468980;28;20323;-70
2022/11/22 15:36:16;;;;;;;6.00;2.63;;;;;;;5.83;63.25;98144.31;10461202;28;20269;-70
2022/11/22 15:41:38;;;;;;;6.20;3.47;;;;;;;6.22;62.80;98137.59;10441360;28;20285;-72
2022/11/22 15:47:02;;;;;;;5.43;2.60;;;;;;;6.48;62.51;98122.78;10472645;28;20259;-69
2022/11/22 15:52:28;;;;;;;2.60;2.40;;;;;;;6.28;63.40;98120.03;10480766;28;20808;-67
2022/11/22 15:57:54;;;;;;;4.53;2.90;;;;;;;6.25;63.97;98107.97;10412763;23;20239;-33
2022/11/22 16:03:00;;;;;;;5.23;2.77;;;;;;;6.17;63.28;98124.09;10403657;28;20224;-33
2022/11/22 16:08:04;;;;;;;6.33;2.87;;;;;;;6.33;62.94;98122.91;10397145;28;20212;-45
2022/11/22 16:13:18;;;;;;;3.43;3.10;;;;;;;6.99;61.54;98133.03;10396119;28;20240;-45
2022/11/22 16:18:27;;;;;;;5.13;3.37;;;;;;;6.15;62.85;98132.25;10392656;28;20319;-44
2022/11/22 16:23:32;;;;;;;5.60;2.77;;;;;;;5.85;63.88;98145.72;10404977;28;20240;-43
2022/11/22 16:28:35;;;;;;;4.13;2.90;;;;;;;6.04;63.32;98136.28;10389457;28;20267;-40
2022/11/22 16:33:37;;;;;;;4.33;2.63;;;;;;;6.01;63.21;98133.16;10393248;28;20241;-43
2022/11/22 16:38:40;;;;;;;4.20;3.27;;;;;;;5.33;63.66;98157.53;10385146;28;20266;-44
2022/11/22 16:43:42;;;;;;;4.93;3.30;;;;;;;6.16;61.69;98159.63;10395444;28;20302;-42
2022/11/22 16:48:44;;;;;;;5.77;3.20;;;;;;;5.64;63.47;98164.38;10396067;28;20224;-45
2022/11/22 16:53:47;;;;;;;5.93;3.03;;;;;;;6.61;61.36;98171.50;10392032;28;20229;-45
2022/11/22 16:58:50;;;;;;;6.90;3.10;;;;;;;6.40;61.82;98163.66;10389475;28;20659;-44
2022/11/22 17:03:54;;;;;;;6.10;3.10;;;;;;;5.29;63.35;98177.50;10401207;28;20236;-44
2022/11/22 17:08:58;;;;;;;5.10;3.63;;;;;;;7.04;60.45;98186.44;10389497;28;20229;-45
2022/11/22 17:14:00;;;;;;;4.97;3.13;;;;;;;6.18;61.74;98181.50;10412716;28;20232;-45
2022/11/22 17:19:01;;;;;;;3.40;2.90;;;;;;;6.90;60.79;98187.38;10396020;28;20601;-43
2022/11/22 17:24:16;;;;;;;5.03;2.73;;;;;;;6.91;60.64;98199.69;10390395;28;20242;-41
2022/11/22 17:29:18;;;;;;;5.07;2.57;;;;;;;6.71;60.39;98207.53;10389363;28;20231;-43
2022/11/22 17:34:39;;;;;;;6.37;2.67;;;;;;;6.82;58.95;98236.25;10394252;28;20332;-45
2022/11/22 17:39:41;;;;;;;4.53;3.20;;;;;;;7.20;59.23;98254.41;10398766;28;20233;-45
2022/11/22 17:44:43;;;;;;;8.87;3.20;;;;;;;7.55;58.81;98292.38;10396190;28;20229;-43
2022/11/22 17:49:44;;;;;;;7.53;3.57;;;;;;;6.56;59.77;98280.25;10392252;28;20238;-44
2022/11/22 17:54:46;;;;;;;4.53;2.90;;;;;;;6.69;59.86;98265.41;10399170;28;20987;-44
2022/11/22 17:59:48;;;;;;;4.17;3.17;;;;;;;7.31;57.59;98309.72;10394425;28;20228;-45
2022/11/22 18:04:49;;;;;;;4.93;3.17;;;;;;;7.69;56.60;98354.44;10398704;28;20228;-45
2022/11/22 18:09:51;;;;;;;4.03;2.87;;;;;;;7.43;57.02;98357.84;10389713;28;20243;-44
2022/11/22 18:14:53;;;;;;;6.03;3.13;;;;;;;8.28;55.42;98398.25;10393033;28;20746;-44
2022/11/22 18:19:54;;;;;;;4.73;2.77;;;;;;;8.87;54.47;98422.50;10392770;28;20323;-43
2022/11/22 18:24:56;;;;;;;4.77;3.80;;;;;;;7.34;57.17;98380.31;10393443;28;20256;-44
2022/11/22 18:29:58;;;;;;;3.17;2.67;;;;;;;8.03;56.62;98386.53;10386803;28;20232;-44
2022/11/22 18:35:00;;;;;;;5.13;3.30;;;;;;;8.39;55.73;98417.38;10394143;28;20602;-45
2022/11/22 18:40:02;;;;;;;6.50;3.53;;;;;;;8.29;55.71;98399.09;10394276;28;20232;-41
2022/11/22 18:45:04;;;;;;;5.50;2.90;;;;;;;7.66;56.21;98380.66;10392944;28;20236;-44
2022/11/22 18:50:07;;;;;;;5.63;3.30;;;;;;;8.02;56.20;98393.72;10398680;28;20231;-45
2022/11/22 18:55:16;;;;;;;7.47;2.73;;;;;;;6.42;57.82;98361.72;10392476;28;20260;-43
2022/11/22 19:00:20;;;;;;;7.03;3.40;;;;;;;7.97;55.54;98412.16;10393878;28;20236;-45
2022/11/22 19:05:22;;;;;;;4.13;2.70;;;;;;;7.27;56.48;98412.22;10387663;28;20330;-45
2022/11/22 19:10:25;;;;;;;7.30;3.43;;;;;;;7.53;55.74;98403.56;10394667;28;20319;-45
2022/11/22 19:15:27;;;;;;;6.23;3.63;;;;;;;7.70;55.29;98417.34;10394780;28;20756;-45
2022/11/22 19:20:29;;;;;;;8.53;3.70;;;;;;;7.30;56.71;98395.88;10394402;28;20235;-44
2022/11/22 19:25:50;;;;;;;4.87;2.93;;;;;;;8.40;54.32;98453.63;10398202;28;20233;-45
2022/11/22 19:30:52;;;;;;;7.80;3.50;;;;;;;7.18;55.98;98427.53;10398915;28;20228;-44
2022/11/22 19:35:59;;;;;;;7.30;2.90;;;;;;;7.69;55.49;98431.66;10387442;28;20813;-44
2022/11/22 19:41:09;;;;;;;7.40;3.53;;;;;;;7.13;56.17;98424.63;10393754;28;20719;-44
2022/11/22 19:46:11;;;;;;;7.37;3.47;;;;;;;7.05;56.50;98437.25;10399317;28;20232;-44
2022/11/22 19:51:14;;;;;;;4.77;3.40;;;;;;;7.48;56.13;98435.28;10356075;28;20214;-43
2022/11/22 19:56:17;;;;;;;7.27;3.50;;;;;;;7.77;55.91;98428.03;10342926;28;20243;-42
2022/11/22 20:01:21;;;;;;;6.63;3.47;;;;;;;7.30;55.47;98417.16;10362179;28;20826;-44
2022/11/22 20:06:23;;;;;;;6.47;3.13;;;;;;;7.76;54.61;98441.53;10364907;28;20982;-45
2022/11/22 20:11:25;;;;;;;11.37;3.53;;;;;;;8.57;53.94;98470.91;10353405;28;20248;-45
2022/11/22 20:16:29;;;;;;;7.07;3.23;;;;;;;7.86;55.18;98466.00;10365336;28;20250;-44
2022/11/22 20:21:32;;;;;;;7.60;3.30;;;;;;;7.88;55.16;98474.59;10358632;28;20311;-41
2022/11/22 20:26:35;;;;;;;7.97;3.07;;;;;;;7.93;54.94;98496.13;10359028;28;20240;-44
2022/11/22 20:31:37;;;;;;;7.07;3.40;;;;;;;7.51;55.71;98469.50;10354889;28;20247;-45
2022/11/22 20:36:39;;;;;;;7.63;3.67;;;;;;;7.81;54.87;98485.19;10392964;28;20686;-45
2022/11/22 20:41:41;;;;;;;5.30;2.90;;;;;;;9.73;51.43;98552.38;10400696;28;20225;-44
2022/11/22 20:46:43;;;;;;;7.37;2.90;;;;;;;9.55;51.31;98565.53;10393137;28;20271;-45
2022/11/22 20:51:45;;;;;;;7.67;3.70;;;;;;;8.85;52.43;98539.25;10394872;28;20231;-45
2022/11/22 20:56:47;;;;;;;7.30;3.37;;;;;;;8.22;53.90;98513.69;10401424;28;20239;-44
2022/11/22 21:01:49;;;;;;;5.43;3.00;;;;;;;7.90;54.26;98515.19;10389563;28;20232;-43
2022/11/22 21:06:51;;;;;;;4.37;2.77;;;;;;;7.52;55.19;98518.22;10386504;28;20323;-45
2022/11/22 21:11:53;;;;;;;4.40;3.20;;;;;;;7.88;54.61;98509.22;10391929;28;20228;-42
2022/11/22 21:16:54;;;;;;;5.70;2.77;;;;;;;7.68;53.55;98520.56;10398374;28;20598;-44
2022/11/22 21:21:56;;;;;;;4.70;2.90;;;;;;;8.34;51.77;98566.41;10396392;28;20728;-43
2022/11/22 21:26:58;;;;;;;8.87;3.43;;;;;;;8.95;52.57;98555.69;10384069;28;20241;-44
2022/11/22 21:32:00;;;;;;;4.57;2.70;;;;;;;8.44;52.64;98533.00;10396733;28;20239;-39
2022/11/22 21:37:01;;;;;;;8.37;2.93;;;;;;;7.80;53.58;98536.81;10388537;28;20240;-44
2022/11/22 21:42:03;;;;;;;4.13;2.93;;;;;;;9.40;50.62;98581.81;10396936;28;20292;-45
2022/11/22 21:47:05;;;;;;;7.07;3.20;;;;;;;8.54;52.81;98572.63;10383684;28;20237;-45
2022/11/22 21:52:07;;;;;;;6.73;2.87;;;;;;;10.05;50.11;98613.19;10407152;28;20239;-45
2022/11/22 21:57:08;;;;;;;6.77;2.87;;;;;;;9.13;50.87;98581.81;10396576;28;20247;-43
2022/11/22 22:02:10;;;;;;;7.33;2.90;;;;;;;8.89;51.60;98585.84;10389388;28;20236;-45
2022/11/22 22:07:12;;;;;;;5.17;2.77;;;;;;;8.47;52.98;98545.94;10399803;28;20237;-44
2022/11/22 22:12:33;;;;;;;4.40;2.83;;;;;;;6.09;55.55;98506.66;10396235;28;20232;-44
2022/11/22 22:17:35;;;;;;;5.57;3.60;;;;;;;7.70;54.44;98544.34;10395516;28;20236;-44
2022/11/22 22:22:37;;;;;;;6.70;3.07;;;;;;;7.69;53.95;98540.84;10392318;28;20232;-44
2022/11/22 22:27:39;;;;;;;4.20;2.53;;;;;;;7.27;55.13;98536.47;10395590;28;20742;-44
2022/11/22 22:32:40;;;;;;;3.40;2.70;;;;;;;6.93;55.59;98538.84;10393914;28;20573;-45
2022/11/22 22:37:42;;;;;;;4.83;2.60;;;;;;;7.73;54.34;98525.31;10401275;28;20731;-44
2022/11/22 22:42:44;;;;;;;5.50;2.60;;;;;;;7.57;54.59;98531.78;10406810;28;20234;-44
2022/11/22 22:47:46;;;;;;;3.93;3.03;;;;;;;6.93;54.71;98536.19;10394529;28;20233;-44
2022/11/22 22:52:47;;;;;;;5.23;2.70;;;;;;;8.54;52.24;98539.78;10363599;28;20589;-44
2022/11/22 22:57:49;;;;;;;6.23;3.40;;;;;;;8.55;52.36;98544.94;10354410;28;20232;-43
2022/11/22 23:02:51;;;;;;;5.10;2.63;;;;;;;8.95;51.24;98576.25;10371942;28;20224;-44
2022/11/22 23:07:53;;;;;;;6.07;2.67;;;;;;;8.20;53.05;98577.03;10342599;28;20232;-44
2022/11/22 23:12:54;;;;;;;5.90;2.90;;;;;;;8.85;52.43;98572.06;10354760;28;20242;-43
2022/11/22 23:17:56;;;;;;;5.70;2.87;;;;;;;7.40;54.85;98568.50;10355744;28;20209;-44
2022/11/22 23:22:58;;;;;;;5.07;2.80;;;;;;;7.62;55.83;98544.50;10353786;28;20367;-45
2022/11/22 23:27:59;;;;;;;6.67;3.17;;;;;;;7.47;55.27;98533.97;10352254;28;20220;-44
2022/11/22 23:33:01;;;;;;;4.77;2.60;;;;;;;8.11;54.73;98530.22;10354244;28;20216;-43
2022/11/22 23:38:03;;;;;;;5.40;2.73;;;;;;;8.87;52.59;98541.75;10394099;28;20229;-44
2022/11/22 23:43:05;;;;;;;7.07;3.13;;;;;;;8.79;52.36;98559.56;10400901;28;20237;-44
2022/11/22 23:48:07;;;;;;;5.23;2.90;;;;;;;8.54;52.82;98539.78;10393506;28;20234;-43
2022/11/22 23:53:09;;;;;;;5.87;3.73;;;;;;;8.64;51.91;98558.88;10386811;28;20233;-43
2022/11/22 23:58:10;;;;;;;6.73;3.47;;;;;;;9.33;51.45;98611.19;10395771;28;20766;-46
